Amanda, Ohio
Current Conditions -  °F | °C
As of 12:53 AM on Wednesday 28 Jan 2015 (Local Time) from KLHQ Reporting Station
Haze Haze  
Wind Chill:   Ceiling: Unl
Heat Index:   Visibility: 6mi
Dew Point:   Wind: 0mph
Humidity: 84%   Direction: NA
Pressure: 30.22"   Gusts: NA
Location:  39.65°N, 82.74°W
Report Text: KLHQ 280553Z AUTO 00000KT 6SM BR CLR M16/M18 A3022 RMK AO2 SLP251 I1000 I6000 T11561178 11078 21161 53007
Loading
Personal Weather Stations






























Interactive Weather Map New forecast layout! Learn more

10-Day Weather Forecast

Advertisements
Track Severe Weather on mobile